MET'MAP v2.0
soon released !

Expected late october,
this new version will be
more efficient, smarter,
and hosted on a brand new
server x3 powerfull...
...and still free !


Not compatible ?
Try the mobile version !

LOG IN : | Subscribe | Disclaimer | Who is Orbifly ? |
ICAO code :

TAF - HLGD Gardabiya - 28 Feb 2020 01:38 UTC - Data Source NOAA   


- Airport Elevation : 267 ft
- IATA code : SRX
- No reported NOTAMs.


HLGD - Gardabiya

Latest METAR recorded : 2010/12/01 05:50 HLGD 010550Z 24010KT 5000 HZ NSC 18/02 Q1016
TAF TAF HLGD
Valid from the 28 at 00:00 until the 29 at 00:00 UTC


272300Z 2800/2824 VRB02KT 8000 SCT030

Source NOAA


MET'MAP, your aeronautical weather chart ! - Copyright ORBIFLY December 2007

Programming & Development : Alexandra Zaïnal
Co-Developer : Marc-Olivier Méhu
Technical & hardware support : Manuel Goepfert
Concept & Financing : Baudouin d'Aumeries